Meteo Giornale » Osservazioni meteo Cina » Xian
ore: 04:00 - Osservazioni Meteo Xian
Lat. 34° 10' N Lon. 108° 50' E Alt. 398 metri s.l.m.
17 °C
Sereno
Temp. 24 Ore
17 °C
32 °C
Nord
3.6 Km/h
Dew point 15 °C
Umidità 88 %
Visibilità 10 Km
Il sole sorge alle ore 06:17
Il sole tramonta alle ore 19:11
| Data e Ora | Cielo e Fenomeni | T °C | DP °C | Um. % | Pres. hPa | Vis. km | Vento km/h | |
|---|---|---|---|---|---|---|---|---|
| Oggi h: 04:00 | Sereno | 17 | 15 | 88 | 1016 | 10 | N 3.6 | |
| Oggi h: 03:00 | Sereno | 18 | 15 | 82 | 1016 | 10 | N 3.6 | |
| Oggi h: 02:00 | Sereno | 18 | 15 | 82 | 1016 | 10 | N 3.6 | |
| Oggi h: 01:00 | Sereno | 19 | 15 | 77 | 1016 | 10 | N 3.6 | |
| Oggi h: 00:00 | Sereno | 20 | 15 | 72 | 1016 | 10 | N 3.6 | |
| Ieri h: 23:00 | Sereno | 19 | 15 | 77 | 1016 | 10 | N 3.6 | |
| Ieri h: 22:00 | Sereno | 18 | 15 | 82 | 1015 | 10 | N 7.2 | |
| Ieri h: 21:00 | Sereno | 23 | 15 | 60 | 1015 | 10 | N 7.2 | |
| Ieri h: 20:00 | Sereno | 27 | 14 | 44 | 1014 | 10 | E 10.8 | |
| Ieri h: 19:00 | Sereno | 26 | 15 | 50 | 1014 | 10 | N 7.2 | |
| Ieri h: 18:00 | Sereno | 30 | 14 | 37 | 1014 | 10 | N/NE 10.8 | |
| Ieri h: 17:00 | Sereno | 31 | 13 | 33 | 1013 | 10 | N/NE 10.8 | |
| Ieri h: 16:00 | Poco Nuvoloso | 32 | 14 | 33 | 1013 | 10 | N 7.2 | |
| Ieri h: 15:00 | Poco Nuvoloso | 32 | 15 | 35 | 1014 | 10 | N 7.2 | |
| Ieri h: 14:00 | Sereno | 30 | 16 | 42 | 1015 | 10 | N 7.2 | |
| Ieri h: 13:00 | Sereno | 30 | 17 | 45 | 1015 | 10 | N 7.2 | |
| Ieri h: 12:00 | Sereno | 29 | 17 | 48 | 1015 | 10 | N 7.2 | |
| Ieri h: 11:00 | Sereno | 28 | 17 | 51 | 1016 | 10 | N 3.6 | |
| Ieri h: 10:00 | Sereno | 26 | 17 | 57 | 1016 | 10 | N 7.2 | |
| Ieri h: 09:00 | Sereno | 24 | 17 | 64 | 1016 | 10 | N 3.6 | |
| Ieri h: 08:00 | Sereno | 23 | 17 | 68 | 1015 | 10 | N 3.6 | |
| Ieri h: 07:00 | Sereno | 18 | 16 | 88 | 1015 | 10 | N 0 | |
| Ieri h: 06:00 | Sereno | 17 | 15 | 88 | 1014 | 10 | N 0 | |
| Ieri h: 05:00 | Sereno | 18 | 15 | 82 | 1014 | 10 | N 3.6 | |



